Time;durP1;ratioP1;P1;durP2;ratioP2;P2;SDS_P1;SDS_P2;PMS_P1;PMS_P2;Temp;Humidity;BMP_temperature;BMP_pressure;BME280_temperature;BME280_humidity;BME280_pressure;Samples;Min_cycle;Max_cycle;Signal;HPM_P1;HPM_P2
2022/04/04 00:00:09;;;;;;;8.93;3.70;;;3.40;99.90;;;;;;5079613;28;20066;-42
2022/04/04 00:02:35;;;;;;;4.78;3.40;;;3.40;99.90;;;;;;5074108;28;20048;-43
2022/04/04 00:05:01;;;;;;;7.90;3.90;;;3.50;99.90;;;;;;5076443;28;20051;-41
2022/04/04 00:07:27;;;;;;;9.65;4.10;;;3.50;99.90;;;;;;5056607;28;20597;-41
2022/04/04 00:09:53;;;;;;;7.18;3.90;;;3.50;99.90;;;;;;5076474;28;20051;-41
2022/04/04 00:12:19;;;;;;;9.20;4.18;;;3.60;99.90;;;;;;5076510;28;20047;-41
2022/04/04 00:14:45;;;;;;;8.93;4.30;;;3.60;99.90;;;;;;5057891;28;20079;-41
2022/04/04 00:17:11;;;;;;;7.70;4.55;;;3.70;99.90;;;;;;5081500;28;20433;-41
2022/04/04 00:19:36;;;;;;;8.15;4.78;;;3.70;99.90;;;;;;5080956;28;20509;-41
2022/04/04 00:22:03;;;;;;;10.38;5.38;;;3.80;99.90;;;;;;5081492;28;20043;-42
2022/04/04 00:24:29;;;;;;;11.57;5.35;;;3.80;99.90;;;;;;5081046;28;20049;-44
2022/04/04 00:26:54;;;;;;;12.35;6.07;;;3.80;99.90;;;;;;5080591;28;20793;-43
2022/04/04 00:29:20;;;;;;;15.10;6.95;;;3.90;99.90;;;;;;5079937;28;20088;-43
2022/04/04 00:31:46;;;;;;;9.65;6.65;;;3.90;99.90;;;;;;5077939;28;20477;-42
2022/04/04 00:34:11;;;;;;;11.07;6.47;;;3.90;99.90;;;;;;5073861;28;20153;-41
2022/04/04 00:36:39;;;;;;;9.27;6.80;;;4.00;99.90;;;;;;5072428;28;20052;-42
2022/04/04 00:39:05;;;;;;;11.80;7.28;;;4.00;99.90;;;;;;5077088;28;20637;-41
2022/04/04 00:41:30;;;;;;;12.35;8.38;;;4.00;99.90;;;;;;5079358;28;20044;-41
2022/04/04 00:43:56;;;;;;;13.88;7.95;;;4.10;99.90;;;;;;5079166;28;20048;-41
2022/04/04 00:46:22;;;;;;;12.43;8.88;;;4.10;99.90;;;;;;5080650;28;20075;-41
2022/04/04 00:48:48;;;;;;;12.00;8.98;;;4.20;99.90;;;;;;5080267;28;20548;-46
2022/04/04 00:51:14;;;;;;;13.55;9.15;;;4.20;99.90;;;;;;5078023;28;20398;-41
2022/04/04 00:53:40;;;;;;;13.52;9.65;;;4.30;99.90;;;;;;5073826;28;20072;-41
2022/04/04 00:56:08;;;;;;;9.73;8.02;;;4.30;99.90;;;;;;5080594;28;20067;-41
2022/04/04 00:58:36;;;;;;;12.90;8.13;;;4.30;99.90;;;;;;5079798;28;20055;-42
2022/04/04 01:01:04;;;;;;;11.55;7.40;;;4.10;99.90;;;;;;5081088;28;20051;-42
2022/04/04 01:03:35;;;;;;;14.00;7.45;;;3.90;99.90;;;;;;5055485;28;20063;-41
2022/04/04 01:06:02;;;;;;;9.63;6.80;;;3.90;99.90;;;;;;5081437;28;20098;-41
2022/04/04 01:08:28;;;;;;;11.45;7.15;;;3.70;99.90;;;;;;5083765;28;20055;-41
2022/04/04 01:10:53;;;;;;;11.07;7.85;;;3.70;99.90;;;;;;5078909;28;20403;-41
2022/04/04 01:13:19;;;;;;;14.35;9.13;;;3.70;99.90;;;;;;5081612;28;20040;-41
2022/04/04 01:15:45;;;;;;;11.20;8.27;;;3.60;99.90;;;;;;5082755;28;20058;-41
2022/04/04 01:18:11;;;;;;;13.57;9.35;;;3.60;99.90;;;;;;5078380;28;20150;-41
2022/04/04 01:20:37;;;;;;;14.75;10.38;;;3.70;99.90;;;;;;5063679;28;20073;-41
2022/04/04 01:23:04;;;;;;;16.83;11.68;;;3.60;99.90;;;;;;5082832;28;20332;-42
2022/04/04 01:25:33;;;;;;;17.50;12.38;;;3.70;99.90;;;;;;5081798;28;20374;-41
2022/04/04 01:28:01;;;;;;;15.57;12.10;;;3.80;99.90;;;;;;5082864;28;20055;-41
2022/04/04 01:30:27;;;;;;;19.05;13.82;;;3.80;99.90;;;;;;5077295;28;20044;-41
2022/04/04 01:32:53;;;;;;;22.27;16.27;;;3.80;99.90;;;;;;5083212;28;20465;-41
2022/04/04 01:35:20;;;;;;;20.20;15.50;;;3.90;99.90;;;;;;5082188;28;20051;-41
2022/04/04 01:37:47;;;;;;;20.38;17.10;;;4.00;99.90;;;;;;5083989;28;20478;-42
2022/04/04 01:40:14;;;;;;;23.63;17.88;;;4.10;99.90;;;;;;5078229;28;20048;-41
2022/04/04 01:42:40;;;;;;;23.02;17.85;;;4.10;99.90;;;;;;5083214;28;20527;-42
2022/04/04 01:45:10;;;;;;;23.02;18.02;;;4.20;99.90;;;;;;5086629;28;20136;-41
2022/04/04 01:47:36;;;;;;;24.52;18.33;;;4.20;99.90;;;;;;5081838;28;20077;-42
2022/04/04 01:50:03;;;;;;;24.80;18.83;;;4.30;99.90;;;;;;5077227;28;20051;-41
2022/04/04 01:52:29;;;;;;;20.02;17.45;;;4.30;99.90;;;;;;5078186;28;20051;-41
2022/04/04 01:54:55;;;;;;;20.98;17.17;;;4.30;99.90;;;;;;5081566;28;20048;-41
2022/04/04 01:57:20;;;;;;;21.95;16.85;;;4.40;99.90;;;;;;5082773;28;20058;-44
2022/04/04 01:59:46;;;;;;;17.73;15.73;;;4.40;99.90;;;;;;5057500;28;20493;-41
2022/04/04 02:02:12;;;;;;;18.98;15.05;;;4.40;99.90;;;;;;5077222;28;20048;-42
2022/04/04 02:04:38;;;;;;;18.55;14.18;;;4.50;99.90;;;;;;5055358;28;20067;-41
2022/04/04 02:07:07;;;;;;;16.65;14.95;;;4.50;99.90;;;;;;5082468;28;20044;-41
2022/04/04 02:09:34;;;;;;;20.77;15.88;;;4.50;99.90;;;;;;5082389;28;20486;-41
2022/04/04 02:12:01;;;;;;;47.97;16.55;;;4.50;99.90;;;;;;5082167;28;20600;-43
2022/04/04 02:14:27;;;;;;;18.38;15.32;;;4.60;99.90;;;;;;5076905;28;20040;-41
2022/04/04 02:16:52;;;;;;;22.63;15.50;;;4.60;99.90;;;;;;5080758;28;20556;-41
2022/04/04 02:19:18;;;;;;;19.40;15.95;;;4.60;99.90;;;;;;5077320;28;20040;-41
2022/04/04 02:21:45;;;;;;;19.40;15.85;;;4.60;99.90;;;;;;5074105;28;20132;-42
2022/04/04 02:24:11;;;;;;;21.15;17.42;;;4.70;99.90;;;;;;5081590;28;20427;-41
2022/04/04 02:26:37;;;;;;;22.52;16.55;;;4.70;99.90;;;;;;5073671;28;20059;-41
2022/04/04 02:29:04;;;;;;;20.92;16.17;;;4.80;99.90;;;;;;5076494;28;20036;-41
2022/04/04 02:31:29;;;;;;;19.48;15.45;;;4.80;99.90;;;;;;5081502;28;20044;-40
2022/04/04 02:33:56;;;;;;;20.83;16.58;;;4.80;99.90;;;;;;5056115;28;20063;-41
2022/04/04 02:36:22;;;;;;;20.90;16.85;;;4.80;99.90;;;;;;5073617;28;20718;-41
2022/04/04 02:38:48;;;;;;;21.33;15.77;;;4.90;99.90;;;;;;5081436;28;20568;-41
2022/04/04 02:41:14;;;;;;;22.23;14.88;;;4.90;99.90;;;;;;5077286;28;20044;-41
2022/04/04 02:43:40;;;;;;;19.65;15.30;;;4.90;99.90;;;;;;5077443;28;20102;-41
2022/04/04 02:46:08;;;;;;;20.83;15.75;;;4.90;99.90;;;;;;5082676;28;20514;-42
2022/04/04 02:48:34;;;;;;;23.45;16.35;;;5.00;99.90;;;;;;5070892;28;20063;-42
2022/04/04 02:51:00;;;;;;;21.27;15.80;;;5.00;99.90;;;;;;5081440;28;20036;-42
2022/04/04 02:53:31;;;;;;;22.55;16.65;;;5.00;99.90;;;;;;5064463;28;20056;-43
2022/04/04 02:58:42;;;;;;;24.33;17.05;;;5.00;99.90;;;;;;5060587;28;20146;-41
2022/04/04 03:01:08;;;;;;;22.05;16.63;;;5.00;99.90;;;;;;5081652;28;20412;-42
2022/04/04 03:03:34;;;;;;;26.00;15.85;;;5.00;99.90;;;;;;5080598;28;20473;-42
2022/04/04 03:06:00;;;;;;;28.08;16.67;;;5.00;99.90;;;;;;5080614;28;20083;-41
2022/04/04 03:08:25;;;;;;;29.83;17.35;;;5.10;99.90;;;;;;5080184;28;20143;-42
2022/04/04 03:10:51;;;;;;;22.63;15.85;;;5.10;99.90;;;;;;5080249;28;20052;-41
2022/04/04 03:13:17;;;;;;;22.60;15.85;;;5.10;99.90;;;;;;5080767;28;20044;-41
2022/04/04 03:15:43;;;;;;;22.58;15.18;;;5.10;99.90;;;;;;5080863;28;20044;-41
2022/04/04 03:18:09;;;;;;;20.15;15.80;;;5.10;99.90;;;;;;5080441;28;20078;-42
2022/04/04 03:20:35;;;;;;;20.33;16.67;;;5.20;99.90;;;;;;5072551;28;20051;-42
2022/04/04 03:23:02;;;;;;;19.92;15.77;;;5.20;99.90;;;;;;5080472;28;20070;-41
2022/04/04 03:25:28;;;;;;;23.27;17.23;;;5.20;99.90;;;;;;5057020;28;20114;-41
2022/04/04 03:27:54;;;;;;;27.60;16.48;;;5.20;99.90;;;;;;5055305;28;20079;-41
2022/04/04 03:30:25;;;;;;;21.55;16.15;;;5.20;99.90;;;;;;5079376;28;20036;-41
2022/04/04 03:32:53;;;;;;;20.73;17.10;;;5.20;99.90;;;;;;5045446;28;20085;-41
2022/04/04 03:35:19;;;;;;;23.60;16.85;;;5.20;99.90;;;;;;5070271;28;20097;-43
2022/04/04 03:37:50;;;;;;;26.27;17.67;;;5.20;99.90;;;;;;5067022;28;20532;-41
2022/04/04 03:40:18;;;;;;;24.80;17.10;;;5.20;99.90;;;;;;5073761;28;20060;-41
2022/04/04 03:42:47;;;;;;;22.70;16.63;;;5.20;99.90;;;;;;5080572;28;20060;-41
2022/04/04 03:45:14;;;;;;;22.35;17.42;;;5.20;99.90;;;;;;5080166;28;20056;-41
2022/04/04 03:47:41;;;;;;;25.90;17.70;;;5.20;99.90;;;;;;5080813;28;20078;-41
2022/04/04 03:50:08;;;;;;;24.30;17.75;;;5.20;99.90;;;;;;5079598;28;20040;-41
2022/04/04 03:52:34;;;;;;;22.48;17.88;;;5.20;99.90;;;;;;5080282;28;20048;-42
2022/04/04 03:55:00;;;;;;;21.05;17.08;;;5.20;99.90;;;;;;5075754;28;20059;-41
2022/04/04 03:57:27;;;;;;;28.20;18.35;;;5.20;99.90;;;;;;5058518;28;20048;-41
2022/04/04 03:59:53;;;;;;;22.35;16.40;;;5.20;99.90;;;;;;5076859;28;20075;-41
2022/04/04 04:02:19;;;;;;;23.25;18.10;;;5.20;99.90;;;;;;5081736;28;20105;-41
2022/04/04 04:04:45;;;;;;;27.75;18.67;;;5.10;99.90;;;;;;5076412;28;20040;-41
2022/04/04 04:07:15;;;;;;;30.38;18.67;;;5.10;99.90;;;;;;5077641;28;20135;-45
2022/04/04 04:09:43;;;;;;;24.80;18.65;;;5.10;99.90;;;;;;5080188;28;20060;-41
2022/04/04 04:12:10;;;;;;;26.02;17.48;;;5.10;99.90;;;;;;5080247;28;20079;-41
2022/04/04 04:14:41;;;;;;;24.17;19.35;;;5.10;99.90;;;;;;5078963;28;20147;-41
2022/04/04 04:17:08;;;;;;;28.48;19.23;;;5.10;99.90;;;;;;5079672;28;20048;-41
2022/04/04 04:22:22;;;;;;;26.40;18.35;;;5.10;99.90;;;;;;5057675;28;20102;-41
2022/04/04 04:24:48;;;;;;;25.92;18.42;;;5.10;99.90;;;;;;5075659;28;20550;-41
2022/04/04 04:27:14;;;;;;;30.30;18.02;;;5.10;99.90;;;;;;5079586;28;20071;-41
2022/04/04 04:29:40;;;;;;;27.75;17.75;;;5.10;99.90;;;;;;5078113;28;20139;-41
2022/04/04 04:32:08;;;;;;;27.58;17.02;;;5.10;99.90;;;;;;5079690;28;20378;-41
2022/04/04 04:34:34;;;;;;;25.20;15.23;;;5.10;99.90;;;;;;5071406;28;20475;-42
2022/04/04 04:37:00;;;;;;;20.27;14.23;;;5.10;99.90;;;;;;5073498;28;20049;-41
2022/04/04 04:39:26;;;;;;;21.08;13.18;;;5.10;99.90;;;;;;5079373;28;20039;-41
2022/04/04 04:41:52;;;;;;;22.40;12.80;;;5.10;99.90;;;;;;5082161;28;20537;-41
2022/04/04 04:44:18;;;;;;;19.65;12.38;;;5.10;99.90;;;;;;5082547;28;20052;-41
2022/04/04 04:46:44;;;;;;;20.63;12.23;;;5.10;99.90;;;;;;5075707;28;20048;-41
2022/04/04 04:49:10;;;;;;;21.42;11.25;;;5.10;99.90;;;;;;5080013;28;20040;-41
2022/04/04 04:51:36;;;;;;;18.00;11.05;;;5.20;99.90;;;;;;5081588;28;20047;-41
2022/04/04 04:54:03;;;;;;;18.60;10.95;;;5.20;99.90;;;;;;5079611;28;20466;-41
2022/04/04 04:56:35;;;;;;;20.50;11.55;;;5.20;99.90;;;;;;5075529;28;20084;-41
2022/04/04 04:59:02;;;;;;;17.23;11.10;;;5.20;99.90;;;;;;5065445;28;20469;-41
2022/04/04 05:01:28;;;;;;;19.67;10.77;;;5.20;99.90;;;;;;5064955;28;20059;-41
2022/04/04 05:03:54;;;;;;;24.40;11.77;;;5.20;99.90;;;;;;5082884;28;20054;-41
2022/04/04 05:06:20;;;;;;;19.80;11.32;;;5.20;99.90;;;;;;5074352;28;20036;-41
2022/04/04 05:08:46;;;;;;;18.15;11.40;;;5.20;99.90;;;;;;5084482;28;20461;-41
2022/04/04 05:11:11;;;;;;;16.90;11.93;;;5.20;99.90;;;;;;5084965;28;20133;-43
2022/04/04 05:13:37;;;;;;;18.33;11.43;;;5.10;99.90;;;;;;5065251;28;20465;-43
2022/04/04 05:16:08;;;;;;;19.17;11.73;;;5.20;99.90;;;;;;5081267;28;20044;-42
2022/04/04 05:18:34;;;;;;;20.60;11.95;;;5.10;99.90;;;;;;5077456;28;20083;-47
2022/04/04 05:21:00;;;;;;;22.70;12.00;;;5.10;99.90;;;;;;5076031;28;20147;-41
2022/04/04 05:23:29;;;;;;;13.55;10.13;;;5.10;99.90;;;;;;5079598;28;20083;-41
2022/04/04 05:25:55;;;;;;;19.38;10.93;;;5.10;99.90;;;;;;5079924;28;20054;-40
2022/04/04 05:28:20;;;;;;;15.93;10.88;;;5.10;99.90;;;;;;5080440;28;20052;-41
2022/04/04 05:30:46;;;;;;;14.63;10.77;;;5.10;99.90;;;;;;5078358;28;20499;-41
2022/04/04 05:33:15;;;;;;;19.23;11.57;;;5.10;99.90;;;;;;5082969;28;20473;-43
2022/04/04 05:35:40;;;;;;;17.25;9.23;;;5.00;99.90;;;;;;5073468;28;20051;-41
2022/04/04 05:38:06;;;;;;;12.30;7.40;;;5.10;99.90;;;;;;5064425;28;20040;-40
2022/04/04 05:40:32;;;;;;;15.60;7.68;;;5.00;99.90;;;;;;5081113;28;20127;-41
2022/04/04 05:42:59;;;;;;;12.68;7.70;;;4.90;99.90;;;;;;5082797;28;20052;-40
2022/04/04 05:45:24;;;;;;;14.18;6.97;;;4.90;99.90;;;;;;5061133;28;20044;-40
2022/04/04 05:47:50;;;;;;;10.85;7.47;;;4.90;99.90;;;;;;5076858;28;20051;-41
2022/04/04 05:50:16;;;;;;;13.35;5.75;;;4.90;99.90;;;;;;5077266;28;20044;-41
2022/04/04 05:52:42;;;;;;;11.45;5.95;;;4.80;99.90;;;;;;5077336;28;20577;-41
2022/04/04 05:55:08;;;;;;;9.35;5.32;;;4.80;99.90;;;;;;5080670;28;20052;-41
2022/04/04 05:57:38;;;;;;;12.52;5.97;;;4.80;99.90;;;;;;5078642;28;20047;-41
2022/04/04 06:00:10;;;;;;;10.23;4.95;;;4.80;99.90;;;;;;5083911;28;20522;-41
2022/04/04 06:02:37;;;;;;;13.60;4.67;;;4.70;99.90;;;;;;5077210;28;20048;-41
2022/04/04 06:05:06;;;;;;;8.52;5.45;;;4.70;99.90;;;;;;5082473;28;20047;-40
2022/04/04 06:07:33;;;;;;;10.75;4.45;;;4.70;99.90;;;;;;5075441;28;20510;-41
2022/04/04 06:10:08;;;;;;;10.30;4.70;;;4.60;99.90;;;;;;5074788;28;20051;-40
2022/04/04 06:12:36;;;;;;;8.23;4.70;;;4.60;99.90;;;;;;5065511;28;20044;-41
2022/04/04 06:15:02;;;;;;;10.82;5.20;;;4.60;99.90;;;;;;5079996;28;20051;-41
2022/04/04 06:17:34;;;;;;;11.80;5.50;;;4.70;99.90;;;;;;5076819;28;20079;-41
2022/04/04 06:20:00;;;;;;;11.32;5.60;;;4.70;99.90;;;;;;5070058;28;20776;-42
2022/04/04 06:22:25;;;;;;;8.48;4.00;;;4.70;99.90;;;;;;5055778;28;20044;-41
2022/04/04 06:24:51;;;;;;;8.23;4.70;;;4.70;99.90;;;;;;5077783;28;20685;-41
2022/04/04 06:27:20;;;;;;;8.32;4.75;;;4.80;99.90;;;;;;5076127;28;20063;-42
2022/04/04 06:29:49;;;;;;;7.72;5.32;;;4.80;99.90;;;;;;5075895;28;20052;-41
2022/04/04 06:32:15;;;;;;;10.93;5.30;;;4.90;99.90;;;;;;5071062;28;20097;-41
2022/04/04 06:34:41;;;;;;;10.00;6.53;;;4.90;99.90;;;;;;5073208;28;20045;-40
2022/04/04 06:37:09;;;;;;;13.02;6.95;;;4.90;99.90;;;;;;5056245;28;20109;-41
2022/04/04 06:39:36;;;;;;;15.30;7.75;;;4.90;99.90;;;;;;5073325;28;20060;-42
2022/04/04 06:42:02;;;;;;;10.02;6.88;;;5.00;99.90;;;;;;5075090;28;20155;-40
2022/04/04 06:44:28;;;;;;;14.13;8.30;;;5.00;99.90;;;;;;5074836;28;20063;-40
2022/04/04 06:46:54;;;;;;;11.05;8.15;;;5.10;99.90;;;;;;5064642;28;20048;-41
2022/04/04 06:49:25;;;;;;;15.80;10.48;;;5.10;99.90;;;;;;5072389;28;20498;-41
2022/04/04 06:51:52;;;;;;;12.38;9.13;;;5.10;99.90;;;;;;5080100;28;20051;-40
2022/04/04 06:54:19;;;;;;;14.48;10.20;;;5.20;99.90;;;;;;5057150;28;20511;-41
2022/04/04 06:56:53;;;;;;;15.38;9.90;;;5.20;99.90;;;;;;5074784;28;20062;-40
2022/04/04 06:59:19;;;;;;;15.80;10.05;;;5.10;99.90;;;;;;5058387;28;20429;-40
2022/04/04 07:01:47;;;;;;;15.77;10.65;;;5.20;99.90;;;;;;5078779;28;20080;-40
2022/04/04 07:04:13;;;;;;;14.88;10.77;;;5.20;99.90;;;;;;5086107;28;20055;-40
2022/04/04 07:06:39;;;;;;;20.92;12.25;;;5.20;99.90;;;;;;5082380;28;20051;-41
2022/04/04 07:09:05;;;;;;;14.27;10.75;;;5.30;99.90;;;;;;5081153;28;20059;-40
2022/04/04 07:11:31;;;;;;;15.68;12.27;;;5.30;99.90;;;;;;5081152;28;20048;-40
2022/04/04 07:13:57;;;;;;;18.38;11.85;;;5.40;99.90;;;;;;5080121;28;20410;-40
2022/04/04 07:16:25;;;;;;;19.98;13.10;;;5.40;99.90;;;;;;5075803;28;20078;-40
2022/04/04 07:18:52;;;;;;;19.27;12.20;;;5.40;99.90;;;;;;5063045;28;20056;-41
2022/04/04 07:21:18;;;;;;;17.35;12.93;;;5.40;99.90;;;;;;5081147;28;20083;-40
2022/04/04 07:23:44;;;;;;;21.40;13.30;;;5.40;99.90;;;;;;5075589;28;20131;-40
2022/04/04 07:26:19;;;;;;;25.27;16.23;;;5.40;99.90;;;;;;5076588;28;20047;-40
2022/04/04 07:28:50;;;;;;;23.88;15.50;;;5.50;99.90;;;;;;5085354;28;20052;-40
2022/04/04 07:31:25;;;;;;;21.67;14.93;;;5.50;99.90;;;;;;5047271;28;20087;-40
2022/04/04 07:33:51;;;;;;;22.83;16.30;;;5.50;99.90;;;;;;5086412;28;20131;-40
2022/04/04 07:36:17;;;;;;;21.70;16.00;;;5.50;99.90;;;;;;5087044;28;20127;-41
2022/04/04 07:38:43;;;;;;;28.23;15.93;;;5.50;99.90;;;;;;5062636;28;20570;-42
2022/04/04 07:41:10;;;;;;;28.63;16.75;;;5.50;99.90;;;;;;5077326;28;20055;-42
2022/04/04 07:43:36;;;;;;;24.73;16.52;;;5.50;99.90;;;;;;5076973;28;20557;-40
2022/04/04 07:46:02;;;;;;;27.33;16.35;;;5.50;99.90;;;;;;5078704;28;20044;-39
2022/04/04 07:48:28;;;;;;;24.52;16.98;;;5.60;99.90;;;;;;5079277;28;20040;-40
2022/04/04 07:50:54;;;;;;;25.50;15.30;;;5.60;99.90;;;;;;5072078;28;20059;-40
2022/04/04 07:53:20;;;;;;;20.88;14.23;;;5.50;99.90;;;;;;5074425;28;20044;-39
2022/04/04 07:55:45;;;;;;;20.65;15.25;;;5.50;99.90;;;;;;5080655;28;20048;-40
2022/04/04 07:58:11;;;;;;;21.90;14.68;;;5.60;99.90;;;;;;5080393;28;20043;-40
2022/04/04 08:00:37;;;;;;;24.25;14.10;;;5.60;99.90;;;;;;5080044;28;20529;-40
2022/04/04 08:03:06;;;;;;;23.35;14.45;;;5.60;99.90;;;;;;5074792;28;20050;-40
2022/04/04 08:05:31;;;;;;;25.60;15.88;;;5.50;99.90;;;;;;5078069;28;20131;-40
2022/04/04 08:07:57;;;;;;;24.88;15.05;;;5.60;99.90;;;;;;5073592;28;20494;-41
2022/04/04 08:10:23;;;;;;;24.33;16.63;;;5.60;99.90;;;;;;5059669;28;20047;-41
2022/04/04 08:12:52;;;;;;;24.85;15.80;;;5.70;99.90;;;;;;5077894;28;20035;-40
2022/04/04 08:15:19;;;;;;;19.25;13.27;;;5.70;99.90;;;;;;5060142;28;20048;-40
2022/04/04 08:17:45;;;;;;;21.90;13.70;;;5.70;99.90;;;;;;5079337;28;20161;-40
2022/04/04 08:20:11;;;;;;;22.13;12.95;;;5.60;99.90;;;;;;5071486;28;20041;-40
2022/04/04 08:22:42;;;;;;;25.00;13.15;;;5.60;99.90;;;;;;5073385;28;20051;-40
2022/04/04 08:25:09;;;;;;;17.92;13.70;;;5.60;99.90;;;;;;5076326;28;20161;-40
2022/04/04 08:27:35;;;;;;;14.25;11.82;;;5.70;99.90;;;;;;5074302;28;20503;-40
2022/04/04 08:30:05;;;;;;;20.83;11.68;;;5.60;99.90;;;;;;5077551;28;20079;-41
2022/04/04 08:32:32;;;;;;;19.42;11.25;;;5.70;99.90;;;;;;5077947;28;20061;-40
2022/04/04 08:34:59;;;;;;;19.95;11.32;;;5.60;99.90;;;;;;5077846;28;20044;-39
2022/04/04 08:37:25;;;;;;;15.95;11.35;;;5.70;99.90;;;;;;5079422;28;20050;-40
2022/04/04 08:39:50;;;;;;;25.42;11.80;;;5.70;99.90;;;;;;5077495;28;20048;-40
2022/04/04 08:42:26;;;;;;;15.10;9.85;;;5.70;99.90;;;;;;5074911;28;20801;-40
2022/04/04 08:44:58;;;;;;;19.25;9.90;;;5.80;99.90;;;;;;5060217;28;20063;-40
2022/04/04 08:47:24;;;;;;;14.50;9.82;;;5.80;99.90;;;;;;5079265;28;20540;-40
2022/04/04 08:49:52;;;;;;;13.90;9.50;;;5.80;99.90;;;;;;5062874;28;20384;-41
2022/04/04 08:52:19;;;;;;;13.85;8.23;;;5.90;99.90;;;;;;5078846;28;20066;-41
2022/04/04 08:54:47;;;;;;;13.75;7.93;;;5.90;99.90;;;;;;5078572;28;20055;-40
2022/04/04 08:57:13;;;;;;;14.23;7.68;;;5.90;99.90;;;;;;5064964;28;20048;-39
2022/04/04 08:59:42;;;;;;;14.57;7.72;;;5.80;99.90;;;;;;5078249;28;20426;-41
2022/04/04 09:02:10;;;;;;;15.88;8.40;;;6.00;99.90;;;;;;5074746;28;20496;-39
2022/04/04 09:04:36;;;;;;;9.93;7.32;;;5.90;99.90;;;;;;5077476;28;20170;-40
2022/04/04 09:07:12;;;;;;;12.95;6.90;;;6.00;99.90;;;;;;5071945;28;20075;-39
2022/04/04 09:09:41;;;;;;;11.25;7.05;;;6.00;99.90;;;;;;5078500;28;20048;-40
2022/04/04 09:12:19;;;;;;;12.70;7.55;;;6.00;99.90;;;;;;5073347;28;20134;-41
2022/04/04 09:14:49;;;;;;;10.50;7.03;;;6.00;99.90;;;;;;5082791;28;20526;-40
2022/04/04 09:17:18;;;;;;;13.93;7.25;;;6.00;99.90;;;;;;5079354;28;20459;-40
2022/04/04 09:19:44;;;;;;;15.57;7.93;;;6.10;99.90;;;;;;5075652;28;20187;-40
2022/04/04 09:22:13;;;;;;;14.07;8.05;;;6.10;99.90;;;;;;5076664;28;20042;-39
2022/04/04 09:25:05;;;;;;;15.68;8.40;;;6.10;99.90;;;;;;5058637;28;20061;-41
2022/04/04 09:27:33;;;;;;;14.68;6.68;;;6.10;99.90;;;;;;4962952;28;20080;-41
2022/04/04 09:30:02;;;;;;;11.68;6.07;;;6.10;99.90;;;;;;4979702;28;20062;-42
2022/04/04 09:32:45;;;;;;;12.57;6.75;;;6.10;99.90;;;;;;4976474;28;20055;-40
2022/04/04 09:35:15;;;;;;;15.40;8.40;;;6.10;99.90;;;;;;4976352;28;20054;-40
2022/04/04 09:37:46;;;;;;;16.60;7.22;;;6.10;99.90;;;;;;4954984;28;20066;-40
2022/04/04 09:40:17;;;;;;;12.05;6.45;;;6.20;99.90;;;;;;4977673;28;20058;-40
2022/04/04 09:42:57;;;;;;;10.63;6.47;;;6.20;99.90;;;;;;4974030;28;20482;-40
2022/04/04 09:45:24;;;;;;;16.08;7.50;;;6.20;99.90;;;;;;4969431;28;20051;-40
2022/04/04 09:47:58;;;;;;;13.75;6.90;;;6.30;99.90;;;;;;4980889;28;20050;-41
2022/04/04 09:50:46;;;;;;;15.23;7.68;;;6.20;99.90;;;;;;4967475;28;20081;-39
2022/04/04 09:53:19;;;;;;;15.45;8.55;;;6.30;99.90;;;;;;4976220;28;20085;-40
2022/04/04 09:55:47;;;;;;;13.32;9.38;;;6.30;99.90;;;;;;4979897;28;20050;-40
2022/04/04 09:58:17;;;;;;;14.77;9.32;;;6.30;99.90;;;;;;4977387;28;20061;-40
2022/04/04 10:00:48;;;;;;;16.88;9.90;;;6.40;99.90;;;;;;4975178;28;20051;-43
2022/04/04 10:03:16;;;;;;;13.05;8.48;;;6.50;99.90;;;;;;4968987;28;20565;-40
2022/04/04 10:05:55;;;;;;;16.95;9.43;;;6.50;99.90;;;;;;5060656;28;20554;-41
2022/04/04 10:08:24;;;;;;;12.60;9.00;;;6.60;99.90;;;;;;5062707;28;20161;-40
2022/04/04 10:10:50;;;;;;;14.57;8.23;;;6.60;99.90;;;;;;5059274;28;20066;-40
2022/04/04 10:13:17;;;;;;;14.75;8.65;;;6.50;99.90;;;;;;5053690;28;20087;-40
2022/04/04 10:15:43;;;;;;;14.43;8.57;;;6.50;99.90;;;;;;5064536;28;20055;-40
2022/04/04 10:18:09;;;;;;;12.85;7.85;;;6.60;99.90;;;;;;5057817;28;20048;-40
2022/04/04 10:20:36;;;;;;;11.38;7.22;;;6.60;99.90;;;;;;5054522;28;20056;-39
2022/04/04 10:23:12;;;;;;;11.95;7.50;;;6.60;99.90;;;;;;5055143;28;20550;-40
2022/04/04 10:25:39;;;;;;;10.13;6.53;;;6.60;99.90;;;;;;5039065;28;20056;-40
2022/04/04 10:28:06;;;;;;;13.38;6.90;;;6.60;99.90;;;;;;5057415;28;20059;-39
2022/04/04 10:30:42;;;;;;;9.88;5.35;;;6.60;99.90;;;;;;5058347;28;20476;-40
2022/04/04 10:33:21;;;;;;;14.75;6.03;;;6.60;99.90;;;;;;5055333;28;20048;-40
2022/04/04 10:36:00;;;;;;;12.20;5.45;;;6.70;99.90;;;;;;5051572;28;20543;-40
2022/04/04 10:38:34;;;;;;;12.95;4.95;;;6.60;99.90;;;;;;5052548;28;20489;-39
2022/04/04 10:41:20;;;;;;;10.30;6.05;;;6.70;99.90;;;;;;5040976;28;20102;-40
2022/04/04 10:43:51;;;;;;;8.82;4.55;;;6.70;99.90;;;;;;5053762;28;20041;-39
2022/04/04 10:46:19;;;;;;;12.60;5.55;;;6.80;99.90;;;;;;5054235;28;20053;-40
2022/04/04 10:48:49;;;;;;;8.85;3.80;;;6.80;99.90;;;;;;5053070;28;20086;-40
2022/04/04 10:51:27;;;;;;;9.10;3.65;;;6.80;99.90;;;;;;5052452;28;20329;-40
2022/04/04 10:54:00;;;;;;;7.70;3.33;;;6.90;99.90;;;;;;5054584;28;20055;-40
2022/04/04 10:56:46;;;;;;;10.00;3.28;;;7.00;99.90;;;;;;5054738;28;20522;-39
2022/04/04 10:59:23;;;;;;;8.68;3.60;;;6.90;99.90;;;;;;5056214;28;20384;-40
2022/04/04 11:02:02;;;;;;;7.57;3.47;;;7.00;99.90;;;;;;5037674;28;20128;-39
2022/04/04 11:04:31;;;;;;;8.70;3.40;;;7.00;99.90;;;;;;5035343;28;20099;-39
2022/04/04 11:10:06;;;;;;;10.73;4.57;;;7.00;99.90;;;;;;5061026;28;20525;-39
2022/04/04 11:13:00;;;;;;;7.72;2.92;;;7.00;99.90;;;;;;5044154;28;20926;-43
2022/04/04 11:15:44;;;;;;;;;;;7.00;99.90;;;;;;5050919;28;20121;-40
2022/04/04 11:18:13;;;;;;;;;;;7.10;99.90;;;;;;5058573;28;20376;-39
2022/04/04 11:20:59;;;;;;;3.97;2.60;;;7.10;99.90;;;;;;5056526;28;19931;-39
2022/04/04 11:23:34;;;;;;;5.72;2.70;;;7.10;99.90;;;;;;5032397;28;20677;-39
2022/04/04 11:26:04;;;;;;;6.50;2.47;;;7.10;99.90;;;;;;5052562;28;20099;-39
2022/04/04 11:28:42;;;;;;;7.75;3.17;;;7.20;99.90;;;;;;5024452;28;20119;-39
2022/04/04 11:31:10;;;;;;;6.40;2.88;;;7.20;99.90;;;;;;5036766;28;20088;-39
2022/04/04 11:33:47;;;;;;;7.97;3.22;;;7.30;99.90;;;;;;5053713;28;20045;-39
2022/04/04 11:36:32;;;;;;;6.82;2.85;;;7.30;99.90;;;;;;5034528;28;20092;-39
2022/04/04 11:39:07;;;;;;;4.10;2.28;;;7.30;99.90;;;;;;5056461;28;20399;-40
2022/04/04 11:41:46;;;;;;;3.53;2.47;;;7.30;99.90;;;;;;5056997;28;20456;-39
2022/04/04 11:44:24;;;;;;;4.38;2.55;;;7.40;99.90;;;;;;5040662;28;20052;-39
2022/04/04 11:47:07;;;;;;;4.93;2.22;;;7.40;99.90;;;;;;5057658;28;20047;-38
2022/04/04 11:49:37;;;;;;;4.97;2.20;;;7.60;99.90;;;;;;5058381;28;20037;-39
2022/04/04 11:52:06;;;;;;;3.83;2.40;;;7.60;99.90;;;;;;5055703;28;20053;-39
2022/04/04 11:54:48;;;;;;;4.45;2.60;;;7.60;99.90;;;;;;5057993;28;20060;-39
2022/04/04 11:57:14;;;;;;;3.00;2.00;;;7.70;99.90;;;;;;5038357;28;20052;-39
2022/04/04 11:59:47;;;;;;;5.32;2.88;;;7.60;99.90;;;;;;5047450;28;20056;-40
2022/04/04 12:02:13;;;;;;;5.63;3.85;;;7.70;99.90;;;;;;5056599;28;20059;-39
2022/04/04 12:04:41;;;;;;;4.28;2.95;;;7.60;99.90;;;;;;5055563;28;20081;-39
2022/04/04 12:07:09;;;;;;;4.68;2.75;;;7.60;99.90;;;;;;5060476;28;20162;-38
2022/04/04 12:09:36;;;;;;;5.45;3.30;;;7.70;99.90;;;;;;5051672;28;20060;-39
2022/04/04 12:12:12;;;;;;;4.45;3.28;;;7.70;99.90;;;;;;5048866;28;20075;-39
2022/04/04 12:14:42;;;;;;;5.43;3.47;;;7.70;99.90;;;;;;5055379;28;20499;-39
2022/04/04 12:17:14;;;;;;;5.38;3.63;;;7.70;99.90;;;;;;5055893;28;20088;-40
2022/04/04 12:19:49;;;;;;;4.95;3.78;;;7.80;99.90;;;;;;5056458;28;20080;-39
2022/04/04 12:25:02;;;;;;;4.20;3.42;;;7.90;99.90;;;;;;5051563;28;20052;-47
2022/04/04 12:27:28;;;;;;;5.18;3.95;;;7.80;99.90;;;;;;5059808;28;20056;-38
2022/04/04 12:30:05;;;;;;;7.70;3.70;;;7.90;99.90;;;;;;5041245;28;20398;-40
2022/04/04 12:32:37;;;;;;;9.00;4.72;;;7.90;99.90;;;;;;5051523;28;20048;-39
2022/04/04 12:35:08;;;;;;;5.40;3.60;;;7.90;99.90;;;;;;5049651;28;20071;-39
2022/04/04 12:37:43;;;;;;;6.60;3.90;;;7.90;99.90;;;;;;5059928;28;20075;-38
2022/04/04 12:40:25;;;;;;;5.20;3.95;;;7.90;99.90;;;;;;5054880;28;20411;-39
2022/04/04 12:43:03;;;;;;;5.35;3.92;;;8.10;99.90;;;;;;5055605;28;20123;-39
2022/04/04 12:45:43;;;;;;;6.13;4.40;;;8.00;99.90;;;;;;5037337;28;20155;-38
2022/04/04 12:48:10;;;;;;;6.97;4.43;;;8.00;99.90;;;;;;5056160;28;20508;-39
2022/04/04 12:50:49;;;;;;;7.95;5.10;;;8.00;99.90;;;;;;5051718;28;20055;-38
2022/04/04 12:53:17;;;;;;;8.30;5.13;;;8.20;99.90;;;;;;5058768;28;20075;-38
2022/04/04 12:56:00;;;;;;;6.60;4.85;;;8.20;99.90;;;;;;5051718;28;20048;-38
2022/04/04 12:58:26;;;;;;;10.93;5.70;;;8.10;99.90;;;;;;5055217;28;20495;-38
2022/04/04 13:00:52;;;;;;;9.80;7.10;;;8.30;99.90;;;;;;5053037;28;20098;-39
2022/04/04 13:03:26;;;;;;;10.93;7.80;;;8.20;99.90;;;;;;5034835;28;20486;-38